Mohawk, Arizona
Current Conditions -  °F | °C
As of 4:57 PM on Friday 24 Oct 2014 (Local Time) from KNYL Reporting Station
Clear Clear  
Wind Chill: 96°   Ceiling: Unl
Heat Index: 96°   Visibility: 10mi
Dew Point: 41°   Wind: 7mph
Humidity: 15%   Direction: 200°SSW
Pressure: 29.87"   Gusts: NA
Location:  32.73°N, 113.75°W
Report Text: KNYL 242357Z 20006KT 10SM CLR 36/05 A2987 RMK AO2 SLP112 T03560050 10367 20317 56013
Loading
Personal Weather Stations






























Interactive Weather Map
Tropical Storm Tracking
New forecast layout! Learn more

10-Day Weather Forecast

Advertisements
Track Severe Weather on mobile